Avon, Colorado
Current Conditions -  °F | °C
As of 6:50 AM on Thursday 30 Oct 2014 (Local Time) from KEGE Reporting Station
Clear Clear  
Wind Chill: 25°   Ceiling: Unl
Heat Index: 25°   Visibility: 10mi
Dew Point: 19°   Wind: 0mph
Humidity: 80%   Direction: NA
Pressure: 30.46"   Gusts: NA
Location:  39.63°N, 106.52°W
Report Text: KEGE 301250Z 00000KT 10SM SKC M04/M07 A3046
Loading
Personal Weather Stations






























Interactive Weather Map New forecast layout! Learn more

10-Day Weather Forecast

Advertisements
Track Severe Weather on mobile